createdAt,value
2023-03-02T00:02:54.253Z,61.54
2023-03-02T00:07:58.006Z,60.99
2023-03-02T00:12:59.691Z,60.81
2023-03-02T00:18:01.237Z,60.78
2023-03-02T00:23:02.744Z,60.99
2023-03-02T00:28:04.442Z,60.63
2023-03-02T00:33:06.026Z,61.14
2023-03-02T00:38:07.948Z,61.26
2023-03-02T00:43:09.482Z,61.95
2023-03-02T00:48:11.036Z,61.09
2023-03-02T00:53:12.678Z,61.09
2023-03-02T00:58:14.187Z,62.03
2023-03-02T01:03:16.089Z,61.13
2023-03-02T01:08:17.705Z,61.43
2023-03-02T01:13:21.003Z,61.47
2023-03-02T01:24:51.294Z,62.21
2023-03-02T01:29:52.946Z,61.85
2023-03-02T01:34:55.063Z,61.71
2023-03-02T01:39:56.645Z,60.86
2023-03-02T01:44:58.406Z,61.52
2023-03-02T01:50:18.926Z,61.82
2023-03-02T01:55:24.954Z,61.69
2023-03-02T02:00:31.862Z,61.59
2023-03-02T02:05:33.728Z,61.31
2023-03-02T02:10:35.657Z,61.85
2023-03-02T02:15:40.188Z,62.18
2023-03-02T02:20:44.785Z,61.88
2023-03-02T02:25:52.519Z,62.52
2023-03-02T02:31:18.998Z,62.03
2023-03-02T02:36:26.370Z,62.01
2023-03-02T02:41:34.186Z,62.13
2023-03-02T02:46:36.209Z,62.32
2023-03-02T02:51:37.852Z,62.65
2023-03-02T02:56:39.704Z,62.00
2023-03-02T03:01:45.280Z,62.44
2023-03-02T03:06:56.869Z,61.59
2023-03-02T03:12:16.561Z,61.79
2023-03-02T03:17:18.717Z,62.20
2023-03-02T03:22:35.150Z,62.45
2023-03-02T03:27:37.567Z,61.99
2023-03-02T03:32:40.936Z,62.04
2023-03-02T03:37:43.098Z,62.21
2023-03-02T03:42:45.945Z,61.83
2023-03-02T03:47:47.970Z,61.17
2023-03-02T03:52:49.877Z,61.10
2023-03-02T03:57:56.869Z,60.92
2023-03-02T04:02:59.119Z,61.52
2023-03-02T04:08:02.701Z,61.84
2023-03-02T04:13:05.908Z,61.69
2023-03-02T04:18:08.820Z,61.40
2023-03-02T04:23:11.556Z,61.67
2023-03-02T04:28:17.107Z,61.63
2023-03-02T04:33:20.119Z,61.85
2023-03-02T04:38:23.380Z,61.74
2023-03-02T04:43:26.012Z,61.86
2023-03-02T04:48:27.613Z,62.27
2023-03-02T04:53:29.238Z,61.96
2023-03-02T04:58:30.934Z,62.69
2023-03-02T05:03:32.668Z,62.58
2023-03-02T05:08:34.809Z,62.63
2023-03-02T05:13:36.492Z,63.36
2023-03-02T05:18:38.090Z,62.94
2023-03-02T05:23:40.187Z,62.96
2023-03-02T05:28:42.239Z,62.56
2023-03-02T05:33:43.864Z,62.16
2023-03-02T05:38:45.372Z,62.29
2023-03-02T05:43:47.126Z,62.04
2023-03-02T05:48:49.475Z,62.33
2023-03-02T05:53:51.175Z,62.05
2023-03-02T05:58:52.681Z,61.81
2023-03-02T06:03:54.136Z,62.04
2023-03-02T06:08:55.678Z,62.40
2023-03-02T06:13:57.294Z,62.41
2023-03-02T06:18:59.269Z,62.70
2023-03-02T06:24:00.732Z,63.07
2023-03-02T06:29:02.237Z,62.24
2023-03-02T06:34:03.746Z,62.18
2023-03-02T06:39:06.786Z,62.48
2023-03-02T06:44:08.390Z,62.42
2023-03-02T06:49:12.969Z,61.97
2023-03-02T06:54:15.397Z,61.63
2023-03-02T06:59:16.939Z,61.92
2023-03-02T07:04:18.599Z,61.82
2023-03-02T07:09:20.291Z,61.72
2023-03-02T07:14:21.750Z,61.90
2023-03-02T07:19:23.334Z,62.08
2023-03-02T07:24:24.984Z,62.06
2023-03-02T07:29:26.638Z,61.60
2023-03-02T07:34:28.368Z,61.71
2023-03-02T07:39:30.123Z,61.80
2023-03-02T07:44:31.759Z,61.74
2023-03-02T07:49:33.308Z,60.83
2023-03-02T07:54:34.815Z,60.87
2023-03-02T07:59:36.407Z,60.26
2023-03-02T08:04:37.984Z,60.83
2023-03-02T08:09:40.135Z,60.34
2023-03-02T08:14:41.665Z,60.61
2023-03-02T08:19:43.213Z,60.29
2023-03-02T08:24:44.775Z,60.00
2023-03-02T08:29:46.308Z,60.11
2023-03-02T08:34:47.822Z,59.74
2023-03-02T08:39:49.350Z,59.94
2023-03-02T08:44:50.903Z,59.54
2023-03-02T08:49:52.421Z,60.03
2023-03-02T08:54:54.020Z,60.61
2023-03-02T08:59:55.756Z,60.13
2023-03-02T09:04:57.306Z,60.43
2023-03-02T09:09:58.778Z,60.83
2023-03-02T09:15:00.338Z,59.60
2023-03-02T09:20:01.856Z,59.19
2023-03-02T09:25:05.043Z,59.67
2023-03-02T09:30:07.693Z,59.38
2023-03-02T09:35:09.652Z,59.16
2023-03-02T09:40:33.153Z,59.91
2023-03-02T09:45:54.290Z,59.54
2023-03-02T09:51:22.314Z,59.91
2023-03-02T09:56:24.007Z,59.42
2023-03-02T10:01:37.176Z,59.62
2023-03-02T10:06:38.741Z,59.64
2023-03-02T10:12:00.244Z,59.94
2023-03-02T10:17:26.878Z,59.50
2023-03-02T10:22:52.731Z,59.27
2023-03-02T10:28:05.590Z,59.28
2023-03-02T10:33:15.043Z,59.22
2023-03-02T10:38:22.612Z,59.44
2023-03-02T10:43:31.575Z,59.12
2023-03-02T10:48:33.454Z,59.29
2023-03-02T10:53:34.956Z,58.92
2023-03-02T10:58:36.434Z,59.67
2023-03-02T11:03:37.998Z,59.05
2023-03-02T11:08:39.534Z,59.18
2023-03-02T11:13:41.066Z,59.26
2023-03-02T11:18:48.444Z,59.02
2023-03-02T11:24:04.982Z,58.53
2023-03-02T11:29:13.511Z,59.17
2023-03-02T11:34:27.177Z,58.28
2023-03-02T11:39:55.080Z,58.02
2023-03-02T11:45:01.809Z,57.53
2023-03-02T11:50:05.749Z,57.15
2023-03-02T11:55:12.969Z,57.51
2023-03-02T12:00:42.497Z,58.02
2023-03-02T12:05:47.310Z,57.48
2023-03-02T12:11:07.645Z,57.73
2023-03-02T12:16:18.288Z,56.95
2023-03-02T12:21:21.929Z,56.48
2023-03-02T12:26:28.406Z,56.58
2023-03-02T12:31:55.389Z,57.11
2023-03-02T12:37:02.392Z,55.98
2023-03-02T12:42:38.128Z,55.99
2023-03-02T12:47:44.720Z,56.48
2023-03-02T12:52:57.513Z,55.87
2023-03-02T12:58:01.037Z,56.39
2023-03-02T13:03:03.208Z,55.87
2023-03-02T13:08:04.892Z,56.39
2023-03-02T13:13:18.750Z,56.62
2023-03-02T13:18:26.170Z,56.56
2023-03-02T13:23:30.195Z,56.60
2023-03-02T13:28:37.793Z,56.17
2023-03-02T13:33:44.917Z,56.35
2023-03-02T13:38:50.139Z,56.18
2023-03-02T13:43:51.717Z,56.14
2023-03-02T13:49:09.040Z,55.85
2023-03-02T13:54:15.117Z,55.60
2023-03-02T13:59:18.576Z,55.77
2023-03-02T14:04:22.279Z,55.75
2023-03-02T14:09:23.821Z,56.82
2023-03-02T14:14:27.579Z,55.89
2023-03-02T14:19:29.208Z,56.83
2023-03-02T14:24:30.750Z,57.40
2023-03-02T14:29:33.435Z,57.37
2023-03-02T14:34:37.052Z,57.00
2023-03-02T14:39:40.988Z,57.12
2023-03-02T14:44:43.564Z,56.71
2023-03-02T14:49:45.561Z,56.89
2023-03-02T14:54:54.143Z,56.82
2023-03-02T14:59:56.726Z,57.56
2023-03-02T15:04:58.286Z,57.27
2023-03-02T15:09:59.920Z,57.06
2023-03-02T15:15:01.734Z,58.23
2023-03-02T15:20:03.885Z,58.04
2023-03-02T15:25:05.794Z,58.13
2023-03-02T15:30:07.977Z,58.61
2023-03-02T15:35:09.694Z,58.34
2023-03-02T15:40:11.911Z,58.51
2023-03-02T15:45:13.479Z,58.75
2023-03-02T15:50:15.094Z,58.39
2023-03-02T15:55:16.713Z,59.02
2023-03-02T16:00:18.721Z,58.32
2023-03-02T16:05:20.237Z,59.32
2023-03-02T16:10:21.752Z,59.61
2023-03-02T16:15:23.307Z,59.00
2023-03-02T16:20:24.803Z,58.78
2023-03-02T16:25:26.294Z,59.37
2023-03-02T16:30:28.771Z,59.16
2023-03-02T16:35:32.818Z,59.43
2023-03-02T16:40:34.375Z,59.46
2023-03-02T16:45:36.692Z,59.51
2023-03-02T16:50:38.241Z,59.62
2023-03-02T16:55:39.752Z,59.92
2023-03-02T17:00:41.272Z,59.81
2023-03-02T17:05:43.414Z,59.97
2023-03-02T17:10:44.989Z,60.77
2023-03-02T17:15:46.480Z,60.75
2023-03-02T17:20:51.707Z,60.38
2023-03-02T17:25:53.773Z,61.00
2023-03-02T17:30:55.557Z,60.60
2023-03-02T17:35:57.150Z,60.99
2023-03-02T17:41:02.146Z,61.05
2023-03-02T17:46:21.273Z,60.99
2023-03-02T17:51:24.403Z,60.80
2023-03-02T17:56:27.892Z,60.50
2023-03-02T18:01:29.772Z,60.57
2023-03-02T18:06:31.322Z,60.94
2023-03-02T18:11:33.022Z,61.14
2023-03-02T18:16:34.882Z,61.35
2023-03-02T18:21:37.078Z,61.43
2023-03-02T18:26:38.605Z,61.60
2023-03-02T18:31:40.184Z,61.98
2023-03-02T18:36:41.807Z,62.64
2023-03-02T18:41:43.406Z,62.45
2023-03-02T18:46:45.030Z,62.87
2023-03-02T18:51:46.767Z,62.67
2023-03-02T18:56:48.263Z,62.36
2023-03-02T19:01:49.854Z,62.68
2023-03-02T19:06:51.884Z,63.18
2023-03-02T19:11:53.618Z,63.14
2023-03-02T19:16:55.105Z,63.07
2023-03-02T19:21:56.643Z,63.31
2023-03-02T19:26:58.278Z,63.32
2023-03-02T19:32:00.017Z,63.27
2023-03-02T19:37:01.559Z,63.73
2023-03-02T19:42:03.394Z,63.09
2023-03-02T19:47:04.925Z,62.51
2023-03-02T19:52:06.397Z,63.23
2023-03-02T19:57:07.912Z,63.34
2023-03-02T20:02:09.437Z,64.07
2023-03-02T20:07:10.951Z,64.91
2023-03-02T20:12:12.531Z,64.21
2023-03-02T20:17:13.994Z,64.43
2023-03-02T20:22:16.426Z,63.95
2023-03-02T20:27:18.191Z,63.82
2023-03-02T20:32:20.053Z,64.34
2023-03-02T20:37:21.610Z,64.50
2023-03-02T20:42:23.236Z,64.31
2023-03-02T20:47:24.815Z,63.63
2023-03-02T20:52:26.878Z,63.88
2023-03-02T20:57:28.409Z,64.28
2023-03-02T21:02:29.882Z,64.62
2023-03-02T21:07:31.458Z,64.13
2023-03-02T21:12:33.037Z,64.44
2023-03-02T21:17:34.766Z,64.50
2023-03-02T21:22:36.210Z,64.89
2023-03-02T21:27:38.775Z,64.65
2023-03-02T21:32:40.299Z,64.52
2023-03-02T21:37:43.202Z,64.56
2023-03-02T21:42:45.103Z,64.66
2023-03-02T21:47:46.622Z,64.55
2023-03-02T21:52:48.631Z,64.48
2023-03-02T21:57:50.161Z,64.37
2023-03-02T22:02:51.739Z,64.12
2023-03-02T22:07:53.381Z,64.51
2023-03-02T22:13:04.401Z,65.71
2023-03-02T22:18:11.608Z,66.14
2023-03-02T22:23:15.241Z,66.28
2023-03-02T22:28:23.189Z,65.81
2023-03-02T22:33:28.118Z,65.97
2023-03-02T22:38:30.672Z,65.39
2023-03-02T22:43:34.973Z,65.50
2023-03-02T22:48:38.056Z,65.17
2023-03-02T22:53:46.443Z,64.75
2023-03-02T22:58:50.276Z,64.88
2023-03-02T23:04:08.373Z,64.65
2023-03-02T23:09:09.861Z,64.79
2023-03-02T23:14:18.485Z,65.00
2023-03-02T23:19:20.546Z,65.82
2023-03-02T23:24:22.115Z,65.02
2023-03-02T23:29:23.683Z,64.97
2023-03-02T23:34:25.237Z,64.90
2023-03-02T23:39:26.955Z,64.59
2023-03-02T23:44:28.429Z,65.18
2023-03-02T23:49:29.935Z,65.25
2023-03-02T23:54:31.401Z,65.92
2023-03-02T23:59:32.875Z,65.36
